Overview Statistics Trail Chart Weather Telemetry Raw packets
 

This is the latest recevied weather packets stored in our database for station/object K0BMM-13. If no packets are shown the sender has not sent any weather packets the latest 10 day(s).

<< 1 2 3 4 >>
Time Temp. Humidity Pressure Rain* Wind** Luminosity Snow
1788608140 22.78° C 87% - 0 mm - - -
1788607240 22.22° C 90% - 0 mm - - -
1788606340 21.67° C 92% - 0 mm - - -
1788605440 21.67° C 92% - 0 mm - - -
1788604540 21.67° C 92% - 0 mm - - -
1788603640 21.67° C 92% - 0 mm - - -
1788602739 21.67° C 92% - 0 mm - - -
1788601839 21.67° C 91% - 0 mm - - -
1788600939 21.67° C 91% - 0 mm - - -
1788600039 22.22° C 91% - 0 mm - - -
1788599139 22.22° C 89% - 0 mm - - -
1788598239 22.22° C 89% - 0 mm - - -
1788597339 22.78° C 87% - 0 mm - - -
1788596439 22.78° C 86% - 0 mm - - -
1788595539 23.33° C 84% - 0 mm - - -
1788594638 23.33° C 84% - 0 mm - - -
1788593738 23.33° C 84% - 0 mm - - -
1788592838 23.33° C 84% - 0 mm - - -
1788591938 23.89° C 83% - 0 mm - - -
1788591055 23.89° C 81% - 0 mm - - -
1788590137 23.89° C 82% - 0 mm - - -
1788589246 23.89° C 84% - 0 mm - - -
1788588337 23.89° C 84% - 0 mm - - -
1788587455 24.44° C 83% - 0 mm - - -
1788586537 24.44° C 82% - 0 mm - - -

* Rain latest hour (hover to see other rain measurements)
** Current wind speed in m/s (hover to see current wind gust speed)